Terminal Aerodrome Forecast
Issued by NWS

Home | Current Version | Previous Version | Text Only | Print | Product List | Glossary On
Versions: 1 2 3 4 5 6 7 8 9 10 11 12 13 14 15 16 17 18 19 20
805
FTUS42 KTBW 081731
TAFPGD
TAF
KPGD 081731Z 0818/0918 01009KT P6SM SCT020 BKN100
     FM090300 35011KT P6SM SCT030 BKN100
     FM090800 03008KT P6SM VCSH BKN030 OVC110=

USA.gov is the U.S. government's official web portal to all federal, state and local government web resources and services.